Hurricane Symbol View the latest observations near Atlantic Potential Tropical Cyclone One.

Station 45029 - Holland Buoy, MI Image indicating link to RSS feed of recent meteorological observations for station 45029


Conditions at 45029 as of
(11:00 am EDT)
1500 GMT on 06/18/2024:
     

Click on the graph icon in the table below to see a time series plot of the last five days of that observation.

5-day plot - Wind Direction Wind Direction (WDIR): S ( 190 deg true )
5-day plot - Wind Speed Wind Speed (WSPD): 11.7 kts
5-day plot - Wind Gust Wind Gust (GST): 15.5 kts
5-day plot - Wave Height Wave Height (WVHT): 2.3 ft
5-day plot - Dominant Wave Period Dominant Wave Period (DPD): 3 sec
5-day plot - Mean Wave Direction Mean Wave Direction (MWD):SSW ( 209 deg true )
5-day plot - Air Temperature Air Temperature (ATMP): 68.9 °F
5-day plot - Water Temperature Water Temperature (WTMP): 63.0 °F
5-day plot - Dew Point Dew Point (DEWP): 65.8 °F
5-day plot - Wind Speed at 10 Meters Wind Speed at 10 meters (WSPD10M): 13.6 kts
5-day plot - Wind Speed at 20 Meters Wind Speed at 20 meters (WSPD20M): 15.5 kts
5-day plot -  Wind Speed, Wind Gust and Atmospheric Pressure Combined plot of Wind Speed, Gust, and Air Pressure
Previous observations
TIME
(EDT)
5-day plot - Wind Direction
WDIR
 
5-day plot - Wind Speed
WSPD
kts
5-day plot - Wind Gust
GST
kts
5-day plot - Wave Height
WVHT
ft
5-day plot - Dominant Wave Period
DPD
sec
5-day plot - Average Wave Period
APD
sec
5-day plot - Mean Wave Direction
MWD
 
5-day plot - Atmospheric Pressure
PRES
in
5-day plot - Pressure Tendency
PTDY
in
5-day plot - Air Temperature
ATMP
°F
5-day plot - Water Temperature
WTMP
°F
5-day plot - Dew Point
DEWP
°F
5-day plot - Salinity
SAL
psu
5-day plot - Visibility
VIS
nmi
5-day plot - Tide (above MLLW)
TIDE
ft
2024-06-18 10:50 am S 11.7 15.5 2.6 4- SW-- 69.1 63.0 65.8---
2024-06-18 10:40 am S 13.6 17.5 2.3 4-SSW-- 69.4 63.0 66.0---
2024-06-18 10:30 am S 11.7 15.5 2.3 3-SSW-- 69.3 63.0 66.0---
2024-06-18 10:20 am S 11.7 15.5 2.3 3-SSW-- 69.3 63.0 66.0---
2024-06-18 10:10 am S 13.6 17.5 2.3 3-SSW-- 69.6 63.0 66.0---
2024-06-18 10:00 am S 13.6 17.5 2.0 4-SSW-- 70.0 63.0 66.2---
2024-06-18 09:50 am S 13.6 15.5 2.3 3- SW-- 70.0 63.0 66.4---
2024-06-18 09:40 am S 13.6 15.5 2.3 4- SW-- 69.8 63.0 66.4---
2024-06-18 09:30 am S 13.6 17.5 2.3 3- SW-- 69.8 63.0 66.4---
2024-06-18 09:20 am S 13.6 15.5 2.3 3-SSW-- 69.6 63.0 66.4---
2024-06-18 09:10 am S 13.6 15.5 2.3 3-SSW-- 69.8 63.0 66.4---
2024-06-18 09:00 am S 13.6 15.5 2.0 3- SW-- 69.8 63.0 66.6---
2024-06-18 08:50 am S 13.6 15.5 2.0 3-SSW-- 70.0 63.0 66.6---
2024-06-18 08:40 am S 13.6 15.5 2.0 4- SW-- 70.3 63.0 66.7---
2024-06-18 08:30 am S 11.7 13.6 2.3 3- SW-- 69.8 63.0 66.6---
2024-06-18 08:20 am S 11.7 13.6 2.3 3- SW-- 70.0 63.0 66.6---
2024-06-18 08:10 am S 11.7 13.6 2.3 3- SW-- 70.5 63.0 66.7---
2024-06-18 08:00 am S 11.7 13.6 2.0 3- SW-- 70.0 63.0 66.7---
2024-06-18 07:50 am S 11.7 13.6 2.0 4- SW-- 70.0 63.0 66.6---
2024-06-18 07:40 am S 11.7 15.5 2.3 3-SSW-- 70.2 63.0 66.6---
2024-06-18 07:30 am S 9.7 13.6 2.3 3-SSW-- 69.6 63.0 66.4---
2024-06-18 07:20 am S 11.7 13.6 2.3 3-SSW-- 70.0 63.0 66.6---
2024-06-18 07:10 am S 11.7 15.5 2.3 3-SSW-- 70.3 63.1 66.7---
2024-06-18 07:00 am S 13.6 15.5 2.0 3-SSW-- 70.5 63.1 66.9---
2024-06-18 06:50 am S 11.7 13.6 2.0 3- SW-- 70.3 63.1 66.7---
2024-06-18 06:40 am S 11.7 15.5 2.0 3-SSW-- 70.5 63.1 66.9---
2024-06-18 06:30 am S 13.6 15.5 2.0 3-SSW-- 70.5 63.1 67.1---
2024-06-18 06:10 am S 11.7 13.6 1.6 3-SSW-- 70.2 63.1 66.9---
2024-06-18 06:00 am S 9.7 13.6 2.0 3- SW-- 70.0 63.1 66.7---
2024-06-18 05:50 am S 9.7 11.7 2.0 3- SW-- 69.8 63.3 66.7---
2024-06-18 05:40 am S 11.7 13.6 2.0 3- SW-- 69.8 63.3 66.7---
2024-06-18 05:30 am S 11.7 15.5 2.0 3- SW-- 69.8 63.3 66.7---
2024-06-18 05:20 am S 11.7 15.5 1.6 3- SW-- 70.2 63.5 66.7---
2024-06-18 05:10 am S 13.6 17.5 2.0 3- SW-- 70.3 63.5 66.9---
2024-06-18 05:00 am S 13.6 15.5 2.0 3- SW-- 69.8 63.5 66.7---
2024-06-18 04:50 am S 11.7 13.6 2.0 3- SW-- 69.4 63.5 66.6---
2024-06-18 04:40 am S 13.6 15.5 1.6 3-WSW-- 69.6 63.5 66.6---
2024-06-18 04:30 am S 11.7 15.5 1.6 3-SSW-- 69.8 63.7 66.7---
2024-06-18 04:20 am S 11.7 13.6 1.6 3- SW-- 69.3 63.7 66.4---
2024-06-18 04:10 am S 11.7 13.6 1.6 3- SW-- 69.3 63.7 66.4---
2024-06-18 04:00 am S 11.7 13.6 1.6 3- SW-- 69.3 63.7 66.4---
2024-06-18 03:50 am S 11.7 15.5 1.6 3-SSW-- 69.4 63.7 66.6---
2024-06-18 03:40 am S 11.7 15.5 1.6 3- SW-- 69.8 63.7 66.7---
2024-06-18 03:30 am S 11.7 13.6 1.6 3- SW-- 69.4 63.7 66.6---
2024-06-18 03:20 am S 11.7 13.6 1.6 2-SSW-- 69.8 63.9 66.6---
2024-06-18 03:10 am S 11.7 15.5 1.3 3- SW-- 69.8 63.9 66.7---
2024-06-18 03:00 am S 11.7 13.6 1.3 3- SW-- 69.1 63.9 66.4---
2024-06-18 02:50 am S 9.7 13.6 1.3 3- SW-- 68.7 63.9 66.2---
2024-06-18 02:40 am S 9.7 11.7 1.6 3-SSW-- 68.9 63.9 66.2---
2024-06-18 02:30 am S 9.7 11.7 1.3 3-SSW-- 69.8 63.9 66.4---
2024-06-18 02:20 amSSW 11.7 13.6 1.3 3- SW-- 70.9 63.9 67.1---
2024-06-18 02:10 amSSW 11.7 13.6 1.3 3-SSW-- 71.1 63.9 67.1---
2024-06-18 02:00 amSSW 11.7 13.6 1.3 3-SSW-- 71.2 63.9 67.5---
2024-06-18 01:50 am S 11.7 13.6 1.3 3- SW-- 71.2 63.9 67.5---
2024-06-18 01:40 am S 11.7 13.6 1.3 3- SW-- 71.4 63.9 67.5---
2024-06-18 01:30 am S 11.7 13.6 1.3 3- SW-- 71.1 64.0 67.5---
2024-06-18 01:20 am S 11.7 13.6 1.3 3- SW-- 71.6 64.0 67.6---
2024-06-18 01:10 am S 11.7 13.6 1.0 2-SSW-- 72.5 64.2 68.2---
2024-06-18 01:00 am S 9.7 11.7 1.0 3-SSW-- 72.5 64.2 68.2---
2024-06-18 12:50 am S 9.7 13.6 1.3 3-SSW-- 73.2 64.2 68.2---
2024-06-18 12:40 am S 9.7 13.6 1.3 2- S-- 74.3 64.2 68.7---
2024-06-18 12:30 am S 11.7 15.5 1.3 2- S-- 75.2 64.2 68.9---
2024-06-18 12:20 am S 11.7 15.5 1.0 3-SSW-- 74.3 64.2 69.1---
2024-06-18 12:10 am S 11.7 15.5 1.0 2- S-- 73.8 64.2 68.7---
2024-06-18 12:00 am S 9.7 15.5 1.0 2- S-- 72.9 64.2 68.4---
2024-06-17 11:50 pm S 9.7 11.7 1.0 3-SSW-- 72.1 64.2 68.2---
2024-06-17 11:40 pm S 9.7 9.7 1.0 2- S-- 71.6 64.2 67.6---
2024-06-17 11:30 pm S 9.7 11.7 0.7--SSW-- 72.5 64.4 68.0---
2024-06-17 11:20 pm S 9.7 11.7 0.7--SSW-- 72.1 64.4 68.0---
2024-06-17 11:10 pm S 7.8 9.7 0.7--SSW-- 71.6 64.4 67.6---
2024-06-17 11:00 pm S 7.8 9.7 1.0 3-SSW-- 71.4 64.4 67.8---
2024-06-17 10:50 pm S 5.8 7.8 1.0 3- SW-- 70.3 64.4 67.3---
2024-06-17 10:40 pm S 5.8 5.8 1.0 3- SW-- 70.3 64.0 67.1---
2024-06-17 10:30 pm S 5.8 7.8 1.0 3-SSW-- 70.0 64.0 66.6---
2024-06-17 10:20 pm S 7.8 7.8 1.0 3-SSW-- 70.2 64.0 66.6---
2024-06-17 10:10 pm S 7.8 9.7 1.0 3-SSW-- 70.5 64.0 66.6---
2024-06-17 10:00 pm S 7.8 9.7 1.0 3- SW-- 70.7 63.9 66.6---
2024-06-17 09:50 pm S 9.7 11.7 1.0 3-SSW-- 70.9 64.0 66.7---
2024-06-17 09:40 pm S 9.7 9.7 1.0 3- SW-- 70.2 64.0 66.4---
2024-06-17 09:30 pm S 7.8 9.7 1.0 3-SSW-- 69.8 64.0 66.2---
2024-06-17 09:20 pm S 7.8 9.7 1.0 3-SSW-- 70.0 64.4 66.2---
2024-06-17 09:10 pm S 7.8 9.7 1.0 3-SSW-- 70.3 64.4 66.2---
2024-06-17 09:00 pm S 7.8 9.7 1.0 3-SSW-- 70.7 64.4 66.2---
2024-06-17 08:50 pm S 7.8 9.7 1.0 3- SW-- 71.1 64.4 66.2---
2024-06-17 08:40 pm S 7.8 9.7 1.3 3- SW-- 71.2 64.2 66.4---
2024-06-17 08:30 pm S 7.8 9.7 1.0 3-SSW-- 71.2 64.2 66.4---
2024-06-17 08:20 pm S 7.8 9.7 1.0 3-SSW-- 70.9 64.2 66.4---
2024-06-17 08:10 pm S 7.8 9.7 1.3 3- SW-- 71.1 64.2 66.7---
2024-06-17 08:00 pm S 7.8 9.7 1.0 3- SW-- 71.1 64.2 66.9---
2024-06-17 07:50 pm S 7.8 9.7 1.0 3- SW-- 70.7 64.2 66.7---
2024-06-17 07:40 pm S 7.8 9.7 1.0 3- SW-- 70.7 64.2 66.6---
2024-06-17 07:30 pm S 7.8 7.8 1.0 3- SW-- 70.5 64.4 66.6---
2024-06-17 07:20 pm S 7.8 9.7 1.3 3-SSW-- 70.3 64.4 66.6---
2024-06-17 07:10 pm S 5.8 7.8 1.3 3- SW-- 70.7 64.4 66.7---
2024-06-17 07:00 pm S 7.8 7.8 1.3 3- SW-- 70.5 64.4 66.9---
2024-06-17 06:50 pm S 5.8 7.8 1.3 3- SW-- 70.0 64.2 66.7---
2024-06-17 06:40 pm S 5.8 7.8 1.3 3-SSW-- 70.3 64.0 66.9---
2024-06-17 06:30 pm S 5.8 7.8 1.3 3-SSW-- 70.2 64.2 67.1---
2024-06-17 06:20 pm S 5.8 7.8 1.3 3- SW-- 70.2 64.2 66.9---
2024-06-17 06:10 pm S 5.8 5.8 1.3 3- SW-- 70.2 64.0 67.1---
2024-06-17 06:00 pm S 5.8 5.8 1.3 4- SW-- 70.3 64.2 67.3---
2024-06-17 05:50 pm S 5.8 5.8 1.6 3-SSW-- 70.0 64.0 67.1---
2024-06-17 05:40 pm S 5.8 7.8 1.3 3- SW-- 69.6 63.9 66.9---
2024-06-17 05:30 pm S 5.8 5.8 1.3 3-SSW-- 69.4 63.9 66.7---
2024-06-17 05:20 pm S 5.8 7.8 1.3 3- SW-- 69.4 63.9 66.7---
2024-06-17 05:10 pm S 5.8 7.8 1.3 4-SSW-- 68.7 63.7 66.4---
2024-06-17 05:00 pm S 5.8 5.8 1.3 4-SSW-- 68.2 63.7 66.0---
2024-06-17 04:50 pm S 5.8 5.8 1.6 4-SSW-- 68.4 63.7 66.0---
2024-06-17 04:40 pm S 5.8 5.8 1.6 4-SSW-- 68.2 63.7 65.8---
2024-06-17 04:30 pm S 5.8 7.8 1.6 3-SSW-- 68.4 63.3 65.8---
2024-06-17 04:20 pm S 5.8 7.8 1.6 3-SSW-- 68.5 63.1 66.0---
2024-06-17 04:10 pm S 7.8 7.8 1.6 3-SSW-- 68.2 63.0 65.8---
2024-06-17 04:00 pm S 7.8 7.8 1.6 3- SW-- 67.8 63.0 65.5---
2024-06-17 03:50 pm S 9.7 9.7 1.6 3-SSW-- 68.2 62.8 65.8---
2024-06-17 03:40 pm S 7.8 11.7 1.6 3-SSW-- 68.2 62.8 65.8---
2024-06-17 03:30 pm S 7.8 9.7 1.6 3-SSW-- 68.2 62.8 65.8---
2024-06-17 03:20 pm S 7.8 9.7 1.6 4-SSW-- 68.0 62.6 65.8---
2024-06-17 03:10 pm S 7.8 9.7 1.6 3-SSW-- 67.6 62.6 65.7---
2024-06-17 03:00 pm S 7.8 9.7 1.6 3- SW-- 67.6 62.4 65.5---
2024-06-17 02:50 pm S 7.8 9.7 1.6 3- SW-- 67.8 62.2 65.7---
2024-06-17 02:40 pm S 7.8 9.7 1.6 3-SSW-- 66.9 62.6 65.5---
2024-06-17 02:30 pm S 7.8 9.7 1.6 3-SSW-- 66.4 62.6 64.9---
2024-06-17 02:20 pm S 7.8 9.7 1.6 3-SSW-- 66.4 62.4 64.9---
2024-06-17 02:10 pm S 7.8 9.7 1.6 3-SSW-- 66.0 62.6 64.8---
2024-06-17 02:00 pm S 7.8 9.7 1.6 3-SSW-- 65.8 62.1 64.8---
2024-06-17 01:50 pm S 7.8 9.7 1.6 3-SSW-- 65.8 62.1 64.8---
2024-06-17 01:40 pm S 7.8 9.7 1.6 3- SW-- 65.7 62.2 64.6---
2024-06-17 01:30 pm S 7.8 9.7 1.3 3- SW-- 65.3 62.2 64.4---
2024-06-17 01:20 pm S 7.8 7.8 1.3 3- SW-- 65.1 62.2 64.2---
2024-06-17 01:10 pm S 7.8 7.8 1.6 3- SW-- 65.1 62.2 64.0---
2024-06-17 01:00 pm S 7.8 9.7 1.6 3- SW-- 65.3 61.9 64.2---
2024-06-17 12:50 pm S 7.8 9.7 1.3 3- SW-- 65.3 61.9 64.2---
2024-06-17 12:40 pm S 7.8 9.7 1.3 3- SW-- 65.3 61.9 64.2---
2024-06-17 12:30 pm S 7.8 9.7 1.3 3- SW-- 65.3 61.7 64.2---
2024-06-17 12:20 pm S 9.7 9.7 1.3 3- SW-- 65.3 61.5 64.2---
2024-06-17 12:10 pm S 7.8 9.7 1.3 3- SW-- 65.1 61.5 64.0---
2024-06-17 12:00 pm S 9.7 9.7 1.3 3- SW-- 64.9 61.7 64.0---
2024-06-17 11:50 am S 9.7 9.7 1.3 3- SW-- 64.9 61.5 63.9---
2024-06-17 11:40 am S 7.8 9.7 1.3 3-SSW-- 65.1 61.5 63.9---
2024-06-17 11:30 am S 7.8 9.7 1.3 3- SW-- 65.1 61.5 64.0---
2024-06-17 11:20 amSSW 9.7 9.7 1.3 3-SSW-- 65.3 61.3 64.0---
2024-06-17 11:10 amSSW 9.7 11.7 1.3 3-SSW-- 65.7 61.3 64.2---
2024-06-17 11:00 amSSW 9.7 11.7 1.6 3- SW-- 65.7 61.3 64.4---
2024-06-17 10:50 amSSW 9.7 11.7 1.6 3-SSW-- 65.5 61.3 64.2---

Detailed Wave Summary
for 45029 as of (11:00 am EDT)
1500 GMT on 06/18/2024:

These wave data are displayed in rounded times.

     

Click on the graph icon in the table below to see a time series plot of the last five days of that observation.

5-day plot - Significant Wave Height Significant Wave Height (WVHT): 2.3 ft
Previous observations
TIME
(EDT)
5-day plot - Wave Height
WVHT
ft
5-day plot - Swell Height
SwH
ft
5-day plot - Swell Period
SwP
sec
5-day plot - Swell Direction
SwD
 
5-day plot - Wind Wave Height
WWH
ft
5-day plot - Wind Wave Period
WWP
sec
5-day plot - Wind Wave Direction
WWD
 
5-day plot - Wave Steepness
STEEPNESS
 
5-day plot - Average Wave Period
APD
sec
2024-06-18 10:50 am 2.6------ N/A-
2024-06-18 10:40 am 2.3------ N/A-
2024-06-18 10:30 am 2.3------ N/A-
2024-06-18 10:20 am 2.3------ N/A-
2024-06-18 10:10 am 2.3------ N/A-
2024-06-18 10:00 am 2.0------ N/A-
2024-06-18 09:50 am 2.3------ N/A-
2024-06-18 09:40 am 2.3------ N/A-
2024-06-18 09:30 am 2.3------ N/A-
2024-06-18 09:20 am 2.3------ N/A-
2024-06-18 09:10 am 2.3------ N/A-
2024-06-18 09:00 am 2.0------ N/A-
2024-06-18 08:50 am 2.0------ N/A-
2024-06-18 08:40 am 2.0------ N/A-
2024-06-18 08:30 am 2.3------ N/A-
2024-06-18 08:20 am 2.3------ N/A-
2024-06-18 08:10 am 2.3------ N/A-
2024-06-18 08:00 am 2.0------ N/A-
2024-06-18 07:50 am 2.0------ N/A-
2024-06-18 07:40 am 2.3------ N/A-
2024-06-18 07:30 am 2.3------ N/A-
2024-06-18 07:20 am 2.3------ N/A-
2024-06-18 07:10 am 2.3------ N/A-
2024-06-18 07:00 am 2.0------ N/A-
2024-06-18 06:50 am 2.0------ N/A-
2024-06-18 06:40 am 2.0------ N/A-
2024-06-18 06:30 am 2.0------ N/A-
2024-06-18 06:10 am 1.6------ N/A-
2024-06-18 06:00 am 2.0------ N/A-
2024-06-18 05:50 am 2.0------ N/A-
2024-06-18 05:40 am 2.0------ N/A-
2024-06-18 05:30 am 2.0------ N/A-
2024-06-18 05:20 am 1.6------ N/A-
2024-06-18 05:10 am 2.0------ N/A-
2024-06-18 05:00 am 2.0------ N/A-
2024-06-18 04:50 am 2.0------ N/A-
2024-06-18 04:40 am 1.6------ N/A-
2024-06-18 04:30 am 1.6------ N/A-
2024-06-18 04:20 am 1.6------ N/A-
2024-06-18 04:10 am 1.6------ N/A-
2024-06-18 04:00 am 1.6------ N/A-
2024-06-18 03:50 am 1.6------ N/A-
2024-06-18 03:40 am 1.6------ N/A-
2024-06-18 03:30 am 1.6------ N/A-
2024-06-18 03:20 am 1.6------ N/A-
2024-06-18 03:10 am 1.3------ N/A-
2024-06-18 03:00 am 1.3------ N/A-
2024-06-18 02:50 am 1.3------ N/A-
2024-06-18 02:40 am 1.6------ N/A-
2024-06-18 02:30 am 1.3------ N/A-
2024-06-18 02:20 am 1.3------ N/A-
2024-06-18 02:10 am 1.3------ N/A-
2024-06-18 02:00 am 1.3------ N/A-
2024-06-18 01:50 am 1.3------ N/A-
2024-06-18 01:40 am 1.3------ N/A-
2024-06-18 01:30 am 1.3------ N/A-
2024-06-18 01:20 am 1.3------ N/A-
2024-06-18 01:10 am 1.0------ N/A-
2024-06-18 01:00 am 1.0------ N/A-
2024-06-18 12:50 am 1.3------ N/A-
2024-06-18 12:40 am 1.3------ N/A-
2024-06-18 12:30 am 1.3------ N/A-
2024-06-18 12:20 am 1.0------ N/A-
2024-06-18 12:10 am 1.0------ N/A-
2024-06-18 12:00 am 1.0------ N/A-
2024-06-17 11:50 pm 1.0------ N/A-
2024-06-17 11:40 pm 1.0------ N/A-
2024-06-17 11:30 pm 0.7------ N/A-
2024-06-17 11:20 pm 0.7------ N/A-
2024-06-17 11:10 pm 0.7------ N/A-
2024-06-17 11:00 pm 1.0------ N/A-
2024-06-17 10:50 pm 1.0------ N/A-
2024-06-17 10:40 pm 1.0------ N/A-
2024-06-17 10:30 pm 1.0------ N/A-
2024-06-17 10:20 pm 1.0------ N/A-
2024-06-17 10:10 pm 1.0------ N/A-
2024-06-17 10:00 pm 1.0------ N/A-
2024-06-17 09:50 pm 1.0------ N/A-
2024-06-17 09:40 pm 1.0------ N/A-
2024-06-17 09:30 pm 1.0------ N/A-
2024-06-17 09:20 pm 1.0------ N/A-
2024-06-17 09:10 pm 1.0------ N/A-
2024-06-17 09:00 pm 1.0------ N/A-
2024-06-17 08:50 pm 1.0------ N/A-
2024-06-17 08:40 pm 1.3------ N/A-
2024-06-17 08:30 pm 1.0------ N/A-
2024-06-17 08:20 pm 1.0------ N/A-
2024-06-17 08:10 pm 1.3------ N/A-
2024-06-17 08:00 pm 1.0------ N/A-
2024-06-17 07:50 pm 1.0------ N/A-
2024-06-17 07:40 pm 1.0------ N/A-
2024-06-17 07:30 pm 1.0------ N/A-
2024-06-17 07:20 pm 1.3------ N/A-
2024-06-17 07:10 pm 1.3------ N/A-
2024-06-17 07:00 pm 1.3------ N/A-
2024-06-17 06:50 pm 1.3------ N/A-
2024-06-17 06:40 pm 1.3------ N/A-
2024-06-17 06:30 pm 1.3------ N/A-
2024-06-17 06:20 pm 1.3------ N/A-
2024-06-17 06:10 pm 1.3------ N/A-
2024-06-17 06:00 pm 1.3------ N/A-
2024-06-17 05:50 pm 1.6------ N/A-
2024-06-17 05:40 pm 1.3------ N/A-
2024-06-17 05:30 pm 1.3------ N/A-
2024-06-17 05:20 pm 1.3------ N/A-
2024-06-17 05:10 pm 1.3------ N/A-
2024-06-17 05:00 pm 1.3------ N/A-
2024-06-17 04:50 pm 1.6------ N/A-
2024-06-17 04:40 pm 1.6------ N/A-
2024-06-17 04:30 pm 1.6------ N/A-
2024-06-17 04:20 pm 1.6------ N/A-
2024-06-17 04:10 pm 1.6------ N/A-
2024-06-17 04:00 pm 1.6------ N/A-
2024-06-17 03:50 pm 1.6------ N/A-
2024-06-17 03:40 pm 1.6------ N/A-
2024-06-17 03:30 pm 1.6------ N/A-
2024-06-17 03:20 pm 1.6------ N/A-
2024-06-17 03:10 pm 1.6------ N/A-
2024-06-17 03:00 pm 1.6------ N/A-
2024-06-17 02:50 pm 1.6------ N/A-
2024-06-17 02:40 pm 1.6------ N/A-
2024-06-17 02:30 pm 1.6------ N/A-
2024-06-17 02:20 pm 1.6------ N/A-
2024-06-17 02:10 pm 1.6------ N/A-
2024-06-17 02:00 pm 1.6------ N/A-
2024-06-17 01:50 pm 1.6------ N/A-
2024-06-17 01:40 pm 1.6------ N/A-
2024-06-17 01:30 pm 1.3------ N/A-
2024-06-17 01:20 pm 1.3------ N/A-
2024-06-17 01:10 pm 1.6------ N/A-
2024-06-17 01:00 pm 1.6------ N/A-
2024-06-17 12:50 pm 1.3------ N/A-
2024-06-17 12:40 pm 1.3------ N/A-
2024-06-17 12:30 pm 1.3------ N/A-
2024-06-17 12:20 pm 1.3------ N/A-
2024-06-17 12:10 pm 1.3------ N/A-
2024-06-17 12:00 pm 1.3------ N/A-
2024-06-17 11:50 am 1.3------ N/A-
2024-06-17 11:40 am 1.3------ N/A-
2024-06-17 11:30 am 1.3------ N/A-
2024-06-17 11:20 am 1.3------ N/A-
2024-06-17 11:10 am 1.3------ N/A-
2024-06-17 11:00 am 1.6------ N/A-
2024-06-17 10:50 am 1.6------ N/A-

Ocean Conditions at 45029 as of
(11:00 am EDT)
1500 GMT on 06/18/2024:

These oceanographic data are displayed in rounded times.

     

Click on the graph icon in the table below to see a time series plot of the last five days of that observation.

Depth (DEPTH): 3.3 ft
5-day plot - Ocean Temperature Ocean Temperature (OTMP):62.87 °F
Previous observations
TIME
(EDT)
DEPTH
ft
5-day plot - Ocean Temperature
OTMP
°F
5-day plot - Conductivity
COND
mS/cm
5-day plot - Salinity
SAL
psu
5-day plot - Oxygen Concentration
O2%
%
5-day plot - Oxygen Concentration
O2PPM
ppm
5-day plot - Chlorophyll
CLCON
ug/l
5-day plot - Turbidity
TURB
FTU
5-day plot - pH
PH
 
5-day plot - Eh
EH
mv
2024-06-18 10:50 am 3.362.89--------
2024-06-18 10:40 am 3.362.89--------
2024-06-18 10:30 am 3.362.87--------
2024-06-18 10:20 am 3.362.89--------
2024-06-18 10:10 am 3.362.87--------
2024-06-18 10:00 am 3.362.89--------
2024-06-18 09:50 am 3.362.91--------
2024-06-18 09:40 am 3.362.91--------
2024-06-18 09:30 am 3.362.92--------
2024-06-18 09:20 am 3.362.92--------
2024-06-18 09:10 am 3.362.94--------
2024-06-18 09:00 am 3.362.94--------
2024-06-18 08:50 am 3.362.98--------
2024-06-18 08:40 am 3.362.98--------
2024-06-18 08:30 am 3.362.91--------
2024-06-18 08:20 am 3.362.89--------
2024-06-18 08:10 am 3.362.89--------
2024-06-18 08:00 am 3.362.94--------
2024-06-18 07:50 am 3.362.96--------
2024-06-18 07:40 am 3.363.00--------
2024-06-18 07:30 am 3.363.01--------
2024-06-18 07:20 am 3.363.03--------
2024-06-18 07:10 am 3.363.07--------
2024-06-18 07:00 am 3.363.12--------
2024-06-18 06:50 am 3.363.18--------
2024-06-18 06:40 am 3.363.21--------
2024-06-18 06:30 am 3.363.18--------
2024-06-18 06:10 am 3.363.16--------
2024-06-18 06:00 am 3.363.19--------
2024-06-18 05:50 am 3.363.25--------
2024-06-18 05:40 am 3.363.32--------
2024-06-18 05:30 am 3.363.37--------
2024-06-18 05:20 am 3.363.43--------
2024-06-18 05:10 am 3.363.46--------
2024-06-18 05:00 am 3.363.50--------
2024-06-18 04:50 am 3.363.54--------
2024-06-18 04:40 am 3.363.55--------
2024-06-18 04:30 am 3.363.61--------
2024-06-18 04:20 am 3.363.66--------
2024-06-18 04:10 am 3.363.68--------
2024-06-18 04:00 am 3.363.73--------
2024-06-18 03:50 am 3.363.73--------
2024-06-18 03:40 am 3.363.75--------
2024-06-18 03:30 am 3.363.77--------
2024-06-18 03:20 am 3.363.79--------
2024-06-18 03:10 am 3.363.81--------
2024-06-18 03:00 am 3.363.81--------
2024-06-18 02:50 am 3.363.88--------
2024-06-18 02:40 am 3.363.84--------
2024-06-18 02:30 am 3.363.90--------
2024-06-18 02:20 am 3.363.82--------
2024-06-18 02:10 am 3.363.81--------
2024-06-18 02:00 am 3.363.86--------
2024-06-18 01:50 am 3.363.84--------
2024-06-18 01:40 am 3.363.88--------
2024-06-18 01:30 am 3.363.95--------
2024-06-18 01:20 am 3.364.13--------
2024-06-18 01:10 am 3.364.15--------
2024-06-18 01:00 am 3.364.18--------
2024-06-18 12:50 am 3.364.20--------
2024-06-18 12:40 am 3.364.24--------
2024-06-18 12:30 am 3.364.29--------
2024-06-18 12:20 am 3.364.27--------
2024-06-18 12:10 am 3.364.26--------
2024-06-18 12:00 am 3.364.24--------
2024-06-17 11:50 pm 3.364.27--------
2024-06-17 11:40 pm 3.364.29--------
2024-06-17 11:30 pm 3.364.35--------
2024-06-17 11:20 pm 3.364.42--------
2024-06-17 11:10 pm 3.364.42--------
2024-06-17 11:00 pm 3.364.42--------
2024-06-17 10:50 pm 3.364.31--------
2024-06-17 10:40 pm 3.364.11--------
2024-06-17 10:30 pm 3.364.09--------
2024-06-17 10:20 pm 3.364.04--------
2024-06-17 10:10 pm 3.364.00--------
2024-06-17 10:00 pm 3.363.93--------
2024-06-17 09:50 pm 3.363.99--------
2024-06-17 09:40 pm 3.364.06--------
2024-06-17 09:30 pm 3.364.09--------
2024-06-17 09:20 pm 3.364.33--------
2024-06-17 09:10 pm 3.364.38--------
2024-06-17 09:00 pm 3.364.33--------
2024-06-17 08:50 pm 3.364.33--------
2024-06-17 08:40 pm 3.364.24--------
2024-06-17 08:30 pm 3.364.20--------
2024-06-17 08:20 pm 3.364.15--------
2024-06-17 08:10 pm 3.364.20--------
2024-06-17 08:00 pm 3.364.18--------
2024-06-17 07:50 pm 3.364.15--------
2024-06-17 07:40 pm 3.364.27--------
2024-06-17 07:30 pm 3.364.33--------
2024-06-17 07:20 pm 3.364.35--------
2024-06-17 07:10 pm 3.364.36--------
2024-06-17 07:00 pm 3.364.35--------
2024-06-17 06:50 pm 3.364.22--------
2024-06-17 06:40 pm 3.364.06--------
2024-06-17 06:30 pm 3.364.17--------
2024-06-17 06:20 pm 3.364.20--------
2024-06-17 06:10 pm 3.364.04--------
2024-06-17 06:00 pm 3.364.18--------
2024-06-17 05:50 pm 3.364.11--------
2024-06-17 05:40 pm 3.363.88--------
2024-06-17 05:30 pm 3.363.90--------
2024-06-17 05:20 pm 3.363.79--------
2024-06-17 05:10 pm 3.363.73--------
2024-06-17 05:00 pm 3.363.72--------
2024-06-17 04:50 pm 3.363.70--------
2024-06-17 04:40 pm 3.363.63--------
2024-06-17 04:30 pm 3.363.25--------
2024-06-17 04:20 pm 3.363.16--------
2024-06-17 04:10 pm 3.362.96--------
2024-06-17 04:00 pm 3.363.00--------
2024-06-17 03:50 pm 3.362.80--------
2024-06-17 03:40 pm 3.362.83--------
2024-06-17 03:30 pm 3.362.82--------
2024-06-17 03:20 pm 3.362.62--------
2024-06-17 03:10 pm 3.362.67--------
2024-06-17 03:00 pm 3.362.51--------
2024-06-17 02:50 pm 3.362.31--------
2024-06-17 02:40 pm 3.362.60--------
2024-06-17 02:30 pm 3.362.62--------
2024-06-17 02:20 pm 3.362.37--------
2024-06-17 02:10 pm 3.362.60--------
2024-06-17 02:00 pm 3.362.02--------
2024-06-17 01:50 pm 3.362.10--------
2024-06-17 01:40 pm 3.362.31--------
2024-06-17 01:30 pm 3.362.19--------
2024-06-17 01:20 pm 3.362.22--------
2024-06-17 01:10 pm 3.362.19--------
2024-06-17 01:00 pm 3.361.95--------
2024-06-17 12:50 pm 3.361.92--------
2024-06-17 12:40 pm 3.361.81--------
2024-06-17 12:30 pm 3.361.74--------
2024-06-17 12:20 pm 3.361.59--------
2024-06-17 12:10 pm 3.361.57--------
2024-06-17 12:00 pm 3.361.65--------
2024-06-17 11:50 am 3.361.59--------
2024-06-17 11:40 am 3.361.50--------
2024-06-17 11:30 am 3.361.43--------
2024-06-17 11:20 am 3.361.41--------
2024-06-17 11:10 am 3.361.38--------
2024-06-17 11:00 am 3.361.38--------
2024-06-17 10:50 am 3.361.39--------